Pine Woods, New York
Current Conditions -  °F | °C
As of 11:24 PM on Wednesday 26 Nov 2014 (Local Time) from KRME Reporting Station
Light Snow Light Snow  
Wind Chill: 22°   Ceiling: 2400
Heat Index: 29°   Visibility: 2mi
Dew Point: 27°   Wind: 7mph
Humidity: 92%   Direction: 280°W
Pressure: 29.97"   Gusts: NA
Location:  42.9°N, 75.5716°W
Report Text: KRME 270424Z AUTO 28006KT 2SM -SN BR SCT009 SCT016 OVC024 M02/M03 A2997 RMK AO2 P0001 T10171028
Loading
Personal Weather Stations






























Interactive Weather Map New forecast layout! Learn more

10-Day Weather Forecast

Advertisements
Track Severe Weather on mobile